Time;durP1;ratioP1;P1;durP2;ratioP2;P2;SDS_P1;SDS_P2;PMS_P1;PMS_P2;Temp;Humidity;BMP_temperature;BMP_pressure;BME280_temperature;BME280_humidity;BME280_pressure;Samples;Min_cycle;Max_cycle;Signal;HPM_P1;HPM_P2
2021/11/15 00:00:31;;;;;;;32.20;10.07;;;7.90;99.90;;;;;;5027111;28;20033;-77
2021/11/15 00:02:58;;;;;;;33.03;10.50;;;7.90;99.90;;;;;;5025471;28;20133;-76
2021/11/15 00:05:24;;;;;;;30.67;10.52;;;7.80;99.90;;;;;;5026864;28;20076;-77
2021/11/15 00:07:49;;;;;;;35.05;10.63;;;7.80;99.90;;;;;;5026858;28;20030;-76
2021/11/15 00:10:18;;;;;;;27.95;8.80;;;7.80;99.90;;;;;;5025490;28;20057;-77
2021/11/15 00:12:52;;;;;;;36.42;9.57;;;7.80;99.90;;;;;;5025421;28;20060;-78
2021/11/15 00:15:19;;;;;;;39.42;11.43;;;7.80;99.90;;;;;;5026747;28;20034;-77
2021/11/15 00:17:45;;;;;;;24.58;8.93;;;7.70;99.90;;;;;;5026642;28;20030;-77
2021/11/15 00:20:12;;;;;;;31.42;9.93;;;7.80;99.90;;;;;;5026526;28;20068;-78
2021/11/15 00:22:37;;;;;;;31.38;10.23;;;7.70;99.90;;;;;;5026698;28;20159;-78
2021/11/15 00:25:05;;;;;;;44.13;10.50;;;7.70;99.90;;;;;;5025294;28;20030;-79
2021/11/15 00:27:31;;;;;;;39.05;11.20;;;7.70;99.90;;;;;;5026609;28;20049;-78
2021/11/15 00:29:59;;;;;;;29.55;10.98;;;7.70;99.90;;;;;;5024846;28;20133;-79
2021/11/15 00:32:28;;;;;;;35.30;11.52;;;7.70;99.90;;;;;;5026517;28;20040;-78
2021/11/15 00:34:54;;;;;;;34.03;9.93;;;7.70;99.90;;;;;;5026298;28;20037;-78
2021/11/15 00:37:20;;;;;;;47.30;14.45;;;7.60;99.90;;;;;;5026497;28;20026;-78
2021/11/15 00:39:47;;;;;;;39.63;11.95;;;7.70;99.90;;;;;;5026440;28;20045;-78
2021/11/15 00:42:13;;;;;;;39.63;10.30;;;7.60;99.90;;;;;;5025984;28;20030;-78
2021/11/15 00:44:39;;;;;;;25.20;10.77;;;7.70;99.90;;;;;;5026344;28;20382;-79
2021/11/15 00:47:04;;;;;;;38.55;10.13;;;7.60;99.90;;;;;;5026219;28;20033;-78
2021/11/15 00:49:30;;;;;;;42.13;13.13;;;7.60;99.90;;;;;;5026377;28;20084;-78
2021/11/15 00:51:56;;;;;;;32.70;10.05;;;7.50;99.90;;;;;;5026096;28;20529;-78
2021/11/15 00:54:22;;;;;;;40.33;12.10;;;7.50;99.90;;;;;;5025888;28;20026;-78
2021/11/15 00:56:47;;;;;;;47.03;12.18;;;7.50;99.90;;;;;;5024724;28;20033;-78
2021/11/15 00:59:13;;;;;;;36.05;11.27;;;7.50;99.90;;;;;;5025851;28;20026;-79
2021/11/15 01:01:39;;;;;;;37.17;12.18;;;7.50;99.90;;;;;;5025640;28;20080;-77
2021/11/15 01:04:05;;;;;;;31.88;10.77;;;7.50;99.90;;;;;;5025968;28;20022;-78
2021/11/15 01:06:30;;;;;;;37.80;11.65;;;7.40;99.90;;;;;;5025956;28;20029;-78
2021/11/15 01:08:56;;;;;;;28.10;9.70;;;7.50;99.90;;;;;;5025695;28;20731;-79
2021/11/15 01:11:22;;;;;;;37.60;12.40;;;7.50;99.90;;;;;;5025801;28;20029;-78
2021/11/15 01:13:48;;;;;;;35.63;10.30;;;7.50;99.90;;;;;;5025670;28;20383;-78
2021/11/15 01:16:17;;;;;;;27.17;9.85;;;7.50;99.90;;;;;;5024248;28;20045;-78
2021/11/15 01:18:43;;;;;;;34.55;11.65;;;7.50;99.90;;;;;;5025500;28;20026;-78
2021/11/15 01:21:13;;;;;;;33.78;10.00;;;7.40;99.90;;;;;;5025789;28;20037;-78
2021/11/15 01:23:39;;;;;;;43.90;11.38;;;7.50;99.90;;;;;;5025490;28;20528;-78
2021/11/15 01:26:07;;;;;;;42.58;11.60;;;7.40;99.90;;;;;;5024256;28;20032;-78
2021/11/15 01:28:34;;;;;;;32.45;10.23;;;7.50;99.90;;;;;;5025715;28;20368;-78
2021/11/15 01:31:01;;;;;;;34.92;9.65;;;7.40;99.90;;;;;;5025345;28;20136;-78
2021/11/15 01:33:26;;;;;;;26.85;9.43;;;7.40;99.90;;;;;;5025211;28;20053;-78
2021/11/15 01:35:52;;;;;;;38.00;11.45;;;7.40;99.90;;;;;;5023942;28;20037;-78
2021/11/15 01:38:18;;;;;;;35.97;10.25;;;7.40;99.90;;;;;;5025284;28;20072;-77
2021/11/15 01:40:43;;;;;;;34.05;10.13;;;7.40;99.90;;;;;;5025222;28;20046;-77
2021/11/15 01:43:10;;;;;;;44.67;11.32;;;7.40;99.90;;;;;;5023810;28;20046;-78
2021/11/15 01:45:37;;;;;;;26.88;10.20;;;7.40;99.90;;;;;;5023715;28;20118;-77
2021/11/15 01:48:06;;;;;;;31.23;10.50;;;7.40;99.90;;;;;;5025081;28;20391;-79
2021/11/15 01:50:33;;;;;;;27.98;10.20;;;7.40;99.90;;;;;;5023846;28;20594;-78
2021/11/15 01:52:59;;;;;;;23.83;9.10;;;7.40;99.90;;;;;;5023806;28;20030;-77
2021/11/15 01:55:26;;;;;;;33.28;10.73;;;7.40;99.90;;;;;;5023817;28;20133;-78
2021/11/15 01:57:55;;;;;;;30.55;9.60;;;7.40;99.90;;;;;;5023584;28;20041;-77
2021/11/15 02:00:27;;;;;;;42.83;12.52;;;7.40;99.90;;;;;;5024906;28;20076;-82
2021/11/15 02:02:53;;;;;;;30.75;10.45;;;7.40;99.90;;;;;;5024891;28;20030;-77
2021/11/15 02:05:19;;;;;;;37.75;10.32;;;7.40;99.90;;;;;;5023612;28;20033;-77
2021/11/15 02:07:44;;;;;;;32.42;9.82;;;7.40;99.90;;;;;;5024814;28;20037;-79
2021/11/15 02:10:12;;;;;;;23.15;7.60;;;7.40;99.90;;;;;;5023489;28;20063;-76
2021/11/15 02:12:38;;;;;;;35.30;9.85;;;7.40;99.90;;;;;;5025352;28;20040;-77
2021/11/15 02:15:07;;;;;;;28.08;9.77;;;7.40;99.90;;;;;;5029056;28;20445;-77
2021/11/15 02:17:34;;;;;;;29.30;9.52;;;7.40;99.90;;;;;;5028833;28;20113;-76
2021/11/15 02:20:08;;;;;;;32.97;9.68;;;7.40;99.90;;;;;;5027492;28;20084;-77
2021/11/15 02:22:34;;;;;;;35.35;10.43;;;7.30;99.90;;;;;;5029020;28;20026;-79
2021/11/15 02:25:06;;;;;;;30.80;9.13;;;7.40;99.90;;;;;;5028862;28;20054;-77
2021/11/15 02:27:33;;;;;;;36.15;10.02;;;7.30;99.90;;;;;;5027618;28;20026;-78
2021/11/15 02:30:00;;;;;;;25.65;8.35;;;7.20;99.90;;;;;;5027060;28;20136;-77
2021/11/15 02:32:27;;;;;;;33.58;8.85;;;7.20;99.90;;;;;;5028589;28;20034;-77
2021/11/15 02:34:55;;;;;;;38.35;9.63;;;7.20;99.90;;;;;;5027170;28;20045;-76
2021/11/15 02:37:22;;;;;;;27.98;7.07;;;7.20;99.90;;;;;;5026992;28;20080;-74
2021/11/15 02:39:48;;;;;;;22.83;7.78;;;7.20;99.90;;;;;;5028500;28;20029;-75
2021/11/15 02:42:26;;;;;;;42.22;9.52;;;7.20;99.90;;;;;;5026955;28;20026;-77
2021/11/15 02:44:53;;;;;;;36.42;8.32;;;7.20;99.90;;;;;;5028414;28;20026;-76
2021/11/15 02:47:19;;;;;;;30.83;7.47;;;7.20;99.90;;;;;;5028330;28;20036;-78
2021/11/15 02:49:46;;;;;;;20.42;7.82;;;7.20;99.90;;;;;;5028117;28;20038;-77
2021/11/15 02:52:12;;;;;;;27.30;8.45;;;7.20;99.90;;;;;;5028068;28;20029;-79
2021/11/15 02:54:38;;;;;;;20.77;7.57;;;7.20;99.90;;;;;;5026900;28;20049;-76
2021/11/15 02:57:04;;;;;;;20.98;6.47;;;7.20;99.90;;;;;;5027046;28;20084;-77
2021/11/15 02:59:30;;;;;;;22.48;5.90;;;7.10;99.90;;;;;;5028355;28;20029;-76
2021/11/15 03:01:56;;;;;;;16.33;6.72;;;7.10;99.90;;;;;;5026592;28;20034;-76
2021/11/15 03:04:21;;;;;;;11.57;4.80;;;7.10;99.90;;;;;;5027958;28;20060;-76
2021/11/15 03:06:47;;;;;;;23.85;5.53;;;7.10;99.90;;;;;;5026517;28;20022;-77
2021/11/15 03:09:13;;;;;;;17.75;5.57;;;7.10;99.90;;;;;;5027750;28;20037;-75
2021/11/15 03:11:38;;;;;;;12.27;4.28;;;7.10;99.90;;;;;;5037301;28;20031;-78
2021/11/15 03:14:04;;;;;;;13.02;4.53;;;7.10;99.90;;;;;;5047859;28;20021;-76
2021/11/15 03:16:30;;;;;;;14.90;5.00;;;7.10;99.90;;;;;;5047705;28;20025;-73
2021/11/15 03:18:55;;;;;;;10.95;4.57;;;7.00;99.90;;;;;;5047446;28;20040;-76
2021/11/15 03:21:23;;;;;;;18.10;4.90;;;7.00;99.90;;;;;;5047269;28;20030;-77
2021/11/15 03:23:52;;;;;;;18.88;4.85;;;7.10;99.90;;;;;;5062701;28;20124;-75
2021/11/15 03:26:18;;;;;;;9.32;4.18;;;7.00;99.90;;;;;;5047554;28;20021;-76
2021/11/15 03:28:51;;;;;;;15.63;4.70;;;7.00;99.90;;;;;;5046922;28;20033;-77
2021/11/15 03:31:24;;;;;;;12.23;5.00;;;7.00;99.90;;;;;;5045710;28;20054;-76
2021/11/15 03:33:52;;;;;;;12.27;5.38;;;7.00;99.90;;;;;;5047588;28;20060;-74
2021/11/15 03:36:18;;;;;;;15.35;4.55;;;7.00;99.90;;;;;;5046696;28;20025;-74
2021/11/15 03:38:48;;;;;;;14.63;4.40;;;7.00;99.90;;;;;;5047154;28;20032;-75
2021/11/15 03:41:14;;;;;;;18.48;5.13;;;7.00;99.90;;;;;;5046555;28;20051;-76
2021/11/15 03:43:40;;;;;;;20.25;6.28;;;7.00;99.90;;;;;;5046486;28;20030;-75
2021/11/15 03:46:08;;;;;;;14.75;5.90;;;6.90;99.90;;;;;;5047487;28;20116;-75
2021/11/15 03:48:34;;;;;;;19.50;5.80;;;7.00;99.90;;;;;;5047346;28;20021;-77
2021/11/15 03:50:59;;;;;;;27.63;7.90;;;7.00;99.90;;;;;;5062406;28;20048;-76
2021/11/15 03:53:36;;;;;;;22.65;8.43;;;7.00;99.90;;;;;;5062407;28;20028;-77
2021/11/15 03:56:04;;;;;;;26.58;9.80;;;7.00;99.90;;;;;;5045823;28;20097;-75
2021/11/15 03:58:30;;;;;;;27.38;9.68;;;7.00;99.90;;;;;;5046901;28;20048;-75
2021/11/15 04:00:58;;;;;;;26.55;9.05;;;7.00;99.90;;;;;;5046817;28;20029;-77
2021/11/15 04:03:31;;;;;;;36.67;10.13;;;7.00;99.90;;;;;;5046504;28;20477;-76
2021/11/15 04:06:01;;;;;;;28.17;9.30;;;7.00;99.90;;;;;;5046958;28;20071;-76
2021/11/15 04:08:37;;;;;;;29.55;9.07;;;7.00;99.90;;;;;;5046564;28;20480;-77
2021/11/15 04:11:19;;;;;;;36.08;10.57;;;7.00;99.90;;;;;;5046586;28;20049;-78
2021/11/15 04:14:07;;;;;;;41.25;11.48;;;7.00;99.90;;;;;;5045147;28;20037;-75
2021/11/15 04:16:33;;;;;;;36.63;11.27;;;7.00;99.90;;;;;;5046637;28;20022;-75
2021/11/15 04:19:04;;;;;;;41.75;14.65;;;7.00;99.90;;;;;;5046410;28;20112;-76
2021/11/15 04:21:31;;;;;;;41.85;12.80;;;7.00;99.90;;;;;;5046496;28;20052;-75
2021/11/15 04:23:57;;;;;;;48.50;11.10;;;7.00;99.90;;;;;;5046368;28;20374;-74
2021/11/15 04:26:22;;;;;;;40.17;12.73;;;6.90;99.90;;;;;;5046182;28;20076;-74
2021/11/15 04:28:48;;;;;;;45.67;13.05;;;7.00;99.90;;;;;;5044569;28;20026;-77
2021/11/15 04:31:14;;;;;;;43.65;13.93;;;6.90;99.90;;;;;;5046133;28;20444;-75
2021/11/15 04:33:39;;;;;;;49.45;13.93;;;6.90;99.90;;;;;;5046104;28;20033;-77
2021/11/15 04:36:05;;;;;;;38.60;13.23;;;6.90;99.90;;;;;;5045744;28;20030;-77
2021/11/15 04:38:31;;;;;;;52.10;12.95;;;6.90;99.90;;;;;;5044896;28;20394;-78
2021/11/15 04:40:57;;;;;;;39.00;12.32;;;6.80;99.90;;;;;;5044525;28;20029;-74
2021/11/15 04:43:23;;;;;;;46.05;12.80;;;6.80;99.90;;;;;;5044591;28;20624;-78
2021/11/15 04:45:49;;;;;;;53.47;12.75;;;6.80;99.90;;;;;;5044516;28;20033;-74
2021/11/15 04:48:14;;;;;;;50.13;14.45;;;6.80;99.90;;;;;;5045553;28;20041;-75
2021/11/15 04:50:40;;;;;;;35.13;11.55;;;6.80;99.90;;;;;;5045871;28;20045;-74
2021/11/15 04:53:07;;;;;;;44.53;12.95;;;6.80;99.90;;;;;;5045891;28;20084;-76
2021/11/15 04:55:34;;;;;;;44.15;12.60;;;6.80;99.90;;;;;;5045860;28;20382;-76
2021/11/15 04:58:00;;;;;;;46.72;10.93;;;6.90;99.90;;;;;;5044676;28;20030;-77
2021/11/15 05:00:29;;;;;;;50.67;12.45;;;6.80;99.90;;;;;;5045700;28;20033;-76
2021/11/15 05:02:59;;;;;;;36.42;11.32;;;6.80;99.90;;;;;;5045306;28;20036;-77
2021/11/15 05:05:25;;;;;;;39.28;11.25;;;6.70;99.90;;;;;;5060971;28;20037;-74
2021/11/15 05:07:55;;;;;;;44.28;13.68;;;6.80;99.90;;;;;;5044111;28;20059;-77
2021/11/15 05:10:22;;;;;;;44.30;13.93;;;6.70;99.90;;;;;;5045385;28;20532;-76
2021/11/15 05:12:48;;;;;;;47.15;12.75;;;6.80;99.90;;;;;;5045191;28;20030;-77
2021/11/15 05:15:18;;;;;;;47.70;13.57;;;6.80;99.90;;;;;;5043959;28;20036;-77
2021/11/15 05:17:45;;;;;;;49.55;15.57;;;6.80;99.90;;;;;;5045274;28;20093;-77
2021/11/15 05:20:12;;;;;;;38.05;14.02;;;6.80;99.90;;;;;;5043996;28;20032;-77
2021/11/15 05:22:39;;;;;;;48.55;12.20;;;6.80;99.90;;;;;;5044016;28;20540;-75
2021/11/15 05:25:21;;;;;;;47.30;12.57;;;6.80;99.90;;;;;;5045332;28;20032;-76
2021/11/15 05:27:48;;;;;;;37.00;11.32;;;6.80;99.90;;;;;;5045075;28;20022;-75
2021/11/15 05:30:18;;;;;;;50.83;12.48;;;6.80;99.90;;;;;;5044749;28;20457;-76
2021/11/15 05:32:45;;;;;;;36.55;12.75;;;6.80;99.90;;;;;;5043760;28;20025;-77
2021/11/15 05:35:11;;;;;;;45.35;13.13;;;6.80;99.90;;;;;;5043711;28;20029;-76
2021/11/15 05:37:37;;;;;;;54.05;13.88;;;6.80;99.90;;;;;;5045189;28;20017;-77
2021/11/15 05:40:05;;;;;;;49.85;13.80;;;6.80;99.90;;;;;;5045416;28;20071;-77
2021/11/15 05:42:31;;;;;;;39.05;14.60;;;6.90;99.90;;;;;;5045535;28;20026;-76
2021/11/15 05:44:57;;;;;;;38.22;12.13;;;6.90;99.90;;;;;;5043517;28;20063;-76
2021/11/15 05:47:22;;;;;;;36.17;12.80;;;6.90;99.90;;;;;;5043300;28;20034;-77
2021/11/15 05:49:48;;;;;;;38.17;13.60;;;6.90;99.90;;;;;;5046312;28;20037;-76
2021/11/15 05:52:15;;;;;;;53.03;13.73;;;6.90;99.90;;;;;;5043959;28;20026;-78
2021/11/15 05:54:41;;;;;;;40.65;12.57;;;6.90;99.90;;;;;;5043285;28;20393;-77
2021/11/15 05:57:06;;;;;;;45.28;13.35;;;6.80;99.90;;;;;;5044988;28;20034;-76
2021/11/15 05:59:32;;;;;;;38.78;14.05;;;6.90;99.90;;;;;;5045161;28;20021;-77
2021/11/15 06:01:58;;;;;;;65.85;12.32;;;6.90;99.90;;;;;;5043384;28;20037;-74
2021/11/15 06:04:23;;;;;;;46.72;14.07;;;6.90;99.90;;;;;;5031066;28;20033;-75
2021/11/15 06:06:55;;;;;;;53.38;13.18;;;6.90;99.90;;;;;;5044678;28;20030;-76
2021/11/15 06:09:21;;;;;;;39.28;11.52;;;6.80;99.90;;;;;;5044627;28;20037;-76
2021/11/15 06:11:47;;;;;;;36.35;12.57;;;6.90;99.90;;;;;;5044579;28;20026;-77
2021/11/15 06:14:12;;;;;;;50.53;13.27;;;6.90;99.90;;;;;;5044568;28;20028;-78
2021/11/15 06:16:39;;;;;;;49.28;16.13;;;6.80;99.90;;;;;;5044488;28;20033;-76
2021/11/15 06:19:05;;;;;;;40.35;10.70;;;6.90;99.90;;;;;;5043272;28;20069;-76
2021/11/15 06:21:30;;;;;;;50.55;14.20;;;6.80;99.90;;;;;;5044611;28;20056;-77
2021/11/15 06:23:56;;;;;;;49.17;14.30;;;6.80;99.90;;;;;;5044297;28;20036;-78
2021/11/15 06:26:22;;;;;;;50.38;13.23;;;6.80;99.90;;;;;;5044433;28;20486;-76
2021/11/15 06:28:49;;;;;;;46.15;15.35;;;6.80;99.90;;;;;;5044142;28;20036;-75
2021/11/15 06:31:16;;;;;;;51.25;16.70;;;6.80;99.90;;;;;;5027161;28;20106;-75
2021/11/15 06:33:41;;;;;;;41.65;14.00;;;6.80;99.90;;;;;;5024415;28;20030;-76
2021/11/15 06:36:07;;;;;;;36.00;11.95;;;6.80;99.90;;;;;;5024617;28;20028;-75
2021/11/15 06:38:34;;;;;;;37.08;14.30;;;6.80;99.90;;;;;;5025733;28;20030;-80
2021/11/15 06:40:59;;;;;;;60.65;15.40;;;6.80;99.90;;;;;;5023122;28;20034;-79
2021/11/15 06:43:25;;;;;;;52.30;14.35;;;6.70;99.90;;;;;;5029630;28;20038;-80
2021/11/15 06:45:50;;;;;;;48.13;14.63;;;6.70;99.90;;;;;;5044350;28;20030;-79
2021/11/15 06:48:16;;;;;;;43.20;13.85;;;6.70;99.90;;;;;;5036921;28;20100;-78
2021/11/15 06:50:42;;;;;;;45.25;13.18;;;6.70;99.90;;;;;;5042698;28;20045;-79
2021/11/15 06:53:08;;;;;;;38.47;12.50;;;6.70;99.90;;;;;;5049997;28;20040;-79
2021/11/15 06:55:34;;;;;;;39.20;12.60;;;6.70;99.90;;;;;;5039550;28;20037;-80
2021/11/15 06:58:00;;;;;;;48.33;13.43;;;6.60;99.90;;;;;;5031258;28;20040;-74
2021/11/15 07:00:26;;;;;;;41.05;13.82;;;6.60;99.90;;;;;;5035105;28;20041;-79
2021/11/15 07:02:54;;;;;;;36.60;12.95;;;6.60;99.90;;;;;;5029326;28;20548;-75
2021/11/15 07:05:21;;;;;;;52.35;13.27;;;6.60;99.90;;;;;;5046487;28;20030;-75
2021/11/15 07:07:49;;;;;;;44.53;13.48;;;6.60;99.90;;;;;;5046714;28;20037;-78
2021/11/15 07:10:18;;;;;;;43.33;13.95;;;6.60;99.90;;;;;;5034336;28;20092;-79
2021/11/15 07:12:46;;;;;;;41.70;14.82;;;6.60;99.90;;;;;;5038624;28;20021;-78
2021/11/15 07:15:13;;;;;;;39.78;12.52;;;6.50;99.90;;;;;;5047468;28;20079;-78
2021/11/15 07:17:39;;;;;;;44.38;12.48;;;6.50;99.90;;;;;;5034689;28;20072;-75
2021/11/15 07:20:23;;;;;;;41.30;12.77;;;6.50;99.90;;;;;;5046009;28;20025;-80
2021/11/15 07:22:53;;;;;;;46.27;13.93;;;6.50;99.90;;;;;;5042945;28;20022;-80
2021/11/15 07:25:21;;;;;;;44.90;15.07;;;6.50;99.90;;;;;;5043503;28;20021;-77
2021/11/15 07:27:48;;;;;;;45.78;13.93;;;6.50;99.90;;;;;;5044853;28;20029;-76
2021/11/15 07:30:15;;;;;;;45.88;13.95;;;6.60;99.90;;;;;;5043147;28;20216;-78
2021/11/15 07:32:41;;;;;;;44.47;15.75;;;6.50;99.90;;;;;;5043914;28;20029;-78
2021/11/15 07:35:08;;;;;;;31.10;12.10;;;6.70;99.90;;;;;;5044390;28;20033;-78
2021/11/15 07:37:35;;;;;;;44.22;13.60;;;6.60;99.90;;;;;;5030839;28;20022;-78
2021/11/15 07:40:06;;;;;;;46.75;13.65;;;6.60;99.90;;;;;;5026144;28;20030;-80
2021/11/15 07:42:32;;;;;;;38.80;12.70;;;6.60;99.90;;;;;;5029518;28;20042;-78
2021/11/15 07:44:58;;;;;;;39.17;12.90;;;6.60;99.90;;;;;;5044237;28;20033;-77
2021/11/15 07:47:23;;;;;;;47.58;14.02;;;6.60;99.90;;;;;;5047064;28;20732;-77
2021/11/15 07:49:49;;;;;;;37.65;12.27;;;6.60;99.90;;;;;;5042337;28;20136;-78
2021/11/15 07:52:16;;;;;;;51.42;14.35;;;6.60;99.90;;;;;;5045932;28;20493;-78
2021/11/15 07:54:42;;;;;;;37.97;12.90;;;6.50;99.90;;;;;;5047732;28;20109;-79
2021/11/15 07:57:09;;;;;;;38.38;13.18;;;6.60;99.90;;;;;;5050416;28;20029;-79
2021/11/15 07:59:36;;;;;;;46.08;14.30;;;6.60;99.90;;;;;;5060354;28;20029;-77
2021/11/15 08:02:03;;;;;;;49.45;14.98;;;6.60;99.90;;;;;;5048747;28;20026;-77
2021/11/15 08:04:28;;;;;;;50.45;14.57;;;6.60;99.90;;;;;;5051128;28;20025;-79
2021/11/15 08:06:54;;;;;;;48.15;13.70;;;6.70;99.90;;;;;;5031053;28;20122;-81
2021/11/15 08:09:21;;;;;;;44.15;12.80;;;6.60;99.90;;;;;;5054164;28;20041;-79
2021/11/15 08:11:49;;;;;;;41.08;13.07;;;6.60;99.90;;;;;;5065712;28;20025;-79
2021/11/15 08:14:16;;;;;;;47.33;13.63;;;6.60;99.90;;;;;;5065101;28;20028;-79
2021/11/15 08:16:42;;;;;;;37.53;11.93;;;6.60;99.90;;;;;;5066826;28;20082;-77
2021/11/15 08:19:08;;;;;;;34.83;13.48;;;6.60;99.90;;;;;;5066619;28;20040;-76
2021/11/15 08:21:35;;;;;;;40.28;13.02;;;6.50;99.90;;;;;;5065065;28;20025;-78
2021/11/15 08:24:18;;;;;;;38.33;14.05;;;6.60;99.90;;;;;;5066491;28;20091;-77
2021/11/15 08:26:46;;;;;;;36.63;12.25;;;6.60;99.90;;;;;;5043431;28;20030;-79
2021/11/15 08:29:13;;;;;;;40.15;12.38;;;6.60;99.90;;;;;;5046026;28;20060;-79
2021/11/15 08:31:41;;;;;;;41.20;11.73;;;6.60;99.90;;;;;;5051403;28;20059;-78
2021/11/15 08:34:09;;;;;;;47.55;13.32;;;6.50;99.90;;;;;;5065907;28;20108;-77
2021/11/15 08:36:37;;;;;;;45.35;15.13;;;6.70;99.90;;;;;;5044350;28;20052;-77
2021/11/15 08:39:07;;;;;;;34.53;11.80;;;6.70;99.90;;;;;;5046166;28;20029;-79
2021/11/15 08:41:39;;;;;;;35.60;11.57;;;6.70;99.90;;;;;;5043053;28;20085;-78
2021/11/15 08:44:11;;;;;;;30.83;10.75;;;6.70;99.90;;;;;;5027660;28;20125;-79
2021/11/15 08:46:39;;;;;;;45.10;14.18;;;6.70;99.90;;;;;;5025782;28;20042;-78
2021/11/15 08:49:11;;;;;;;40.70;13.00;;;6.70;99.90;;;;;;5025212;28;20192;-80
2021/11/15 08:51:38;;;;;;;56.05;14.18;;;6.70;99.90;;;;;;5039993;28;20486;-79
2021/11/15 08:54:08;;;;;;;50.30;14.55;;;6.70;99.90;;;;;;5024171;28;20040;-79
2021/11/15 08:56:35;;;;;;;36.83;11.88;;;6.70;99.90;;;;;;5034101;28;20034;-79
2021/11/15 08:59:01;;;;;;;43.58;13.65;;;6.70;99.90;;;;;;5039159;28;20102;-79
2021/11/15 09:01:27;;;;;;;40.58;10.98;;;6.80;99.90;;;;;;5036757;28;20541;-79
2021/11/15 09:03:53;;;;;;;32.22;12.20;;;6.70;99.90;;;;;;5044957;28;20034;-79
2021/11/15 09:06:22;;;;;;;34.40;11.95;;;6.80;99.90;;;;;;5045488;28;20021;-79
2021/11/15 09:08:48;;;;;;;39.38;10.80;;;6.80;99.90;;;;;;5043834;28;20397;-77
2021/11/15 09:11:14;;;;;;;33.55;12.32;;;6.80;99.90;;;;;;5045312;28;20029;-77
2021/11/15 09:13:45;;;;;;;40.28;13.65;;;6.80;99.90;;;;;;5044147;28;20035;-79
2021/11/15 09:16:14;;;;;;;38.28;11.70;;;6.80;99.90;;;;;;5043933;28;20033;-79
2021/11/15 09:18:40;;;;;;;37.72;13.07;;;6.70;99.90;;;;;;5042283;28;20032;-77
2021/11/15 09:21:08;;;;;;;36.67;11.82;;;6.80;99.90;;;;;;5039006;28;20026;-77
2021/11/15 09:23:41;;;;;;;46.22;12.85;;;6.80;99.90;;;;;;5034591;28;20050;-79
2021/11/15 09:26:10;;;;;;;28.17;12.43;;;6.80;99.90;;;;;;5025896;28;20026;-78
2021/11/15 09:28:42;;;;;;;39.92;13.35;;;6.80;99.90;;;;;;5034886;28;20037;-79
2021/11/15 09:31:10;;;;;;;42.90;12.40;;;6.80;99.90;;;;;;5044896;28;20049;-79
2021/11/15 09:33:37;;;;;;;41.58;11.95;;;6.80;99.90;;;;;;5044747;28;20048;-77
2021/11/15 09:36:03;;;;;;;38.58;13.80;;;6.80;99.90;;;;;;5044341;28;20026;-78
2021/11/15 09:38:29;;;;;;;35.50;12.05;;;6.80;99.90;;;;;;5045016;28;20029;-77
2021/11/15 09:40:58;;;;;;;36.17;12.48;;;6.80;99.90;;;;;;5043433;28;20075;-79
2021/11/15 09:43:36;;;;;;;40.58;12.60;;;6.80;99.90;;;;;;5026547;28;20112;-80
2021/11/15 09:46:39;;;;;;;;;;;;;;;;;;;;;
2021/11/15 09:49:10;;;;;;;31.58;10.70;;;6.80;99.90;;;;;;5033855;28;20097;-80
2021/11/15 09:51:39;;;;;;;39.05;12.77;;;6.80;99.90;;;;;;5036022;28;20040;-78
2021/11/15 09:54:06;;;;;;;42.75;13.73;;;6.80;99.90;;;;;;5039333;28;20025;-77
2021/11/15 09:56:33;;;;;;;38.80;12.80;;;6.80;99.90;;;;;;5033912;28;20040;-77
2021/11/15 09:59:00;;;;;;;46.00;12.98;;;6.80;99.90;;;;;;5042212;28;20029;-79
2021/11/15 10:01:26;;;;;;;37.10;12.68;;;6.80;99.90;;;;;;5040161;28;20030;-76
2021/11/15 10:03:52;;;;;;;53.22;13.23;;;6.80;99.90;;;;;;5044947;28;20029;-79
2021/11/15 10:06:21;;;;;;;39.25;12.15;;;6.80;99.90;;;;;;5038696;28;20060;-78
2021/11/15 10:08:51;;;;;;;48.15;12.40;;;6.90;99.90;;;;;;5063216;28;20032;-79
2021/11/15 10:11:18;;;;;;;33.28;14.20;;;6.90;99.90;;;;;;5065094;28;20037;-80
2021/11/15 10:13:43;;;;;;;29.90;11.43;;;6.90;99.90;;;;;;5043073;28;20026;-80
2021/11/15 10:16:28;;;;;;;38.15;11.85;;;7.00;99.90;;;;;;5033115;28;20026;-73
2021/11/15 10:18:58;;;;;;;;;;;6.90;99.90;;;;;;5043458;28;20035;-79
2021/11/15 10:21:36;;;;;;;28.85;10.32;;;7.00;99.90;;;;;;5044144;28;19909;-76
2021/11/15 10:24:10;;;;;;;43.17;12.38;;;6.90;99.90;;;;;;5042492;28;20423;-78
2021/11/15 10:26:44;;;;;;;31.38;13.07;;;6.90;99.90;;;;;;5041070;28;20057;-80
2021/11/15 10:29:14;;;;;;;37.08;11.88;;;6.80;99.90;;;;;;5038779;28;20060;-76
2021/11/15 10:31:45;;;;;;;41.20;11.98;;;6.80;99.90;;;;;;5033375;28;20042;-80
2021/11/15 10:34:34;;;;;;;46.60;13.43;;;6.90;99.90;;;;;;5036392;28;20033;-80
2021/11/15 10:37:13;;;;;;;39.53;12.45;;;6.80;99.90;;;;;;5063520;28;20056;-78
2021/11/15 10:40:01;;;;;;;37.00;11.88;;;6.90;99.90;;;;;;5067674;28;20041;-79
2021/11/15 10:42:29;;;;;;;35.38;10.77;;;6.90;99.90;;;;;;5067237;28;20078;-77
2021/11/15 10:45:09;;;;;;;39.28;12.50;;;6.90;99.90;;;;;;5067428;28;20033;-80
2021/11/15 10:47:53;;;;;;;34.13;11.63;;;6.90;99.90;;;;;;5065224;28;20045;-78
2021/11/15 10:50:44;;;;;;;30.73;9.93;;;6.90;99.90;;;;;;5067327;28;20037;-76
2021/11/15 10:53:14;;;;;;;31.27;10.13;;;6.80;99.90;;;;;;5054017;28;20497;-77
2021/11/15 10:56:10;;;;;;;34.92;11.55;;;6.80;99.90;;;;;;5045603;28;20060;-75
2021/11/15 10:58:42;;;;;;;34.72;11.70;;;6.80;99.90;;;;;;5039943;28;20029;-76
2021/11/15 11:01:11;;;;;;;34.72;13.13;;;6.80;99.90;;;;;;5029312;28;20035;-75
2021/11/15 11:03:38;;;;;;;35.53;12.00;;;6.80;99.90;;;;;;5028307;28;20026;-79
2021/11/15 11:06:07;;;;;;;35.92;12.40;;;6.80;99.90;;;;;;5046701;28;20033;-79
2021/11/15 11:08:49;;;;;;;44.85;12.57;;;6.70;99.90;;;;;;5045192;28;20091;-78
2021/11/15 11:11:30;;;;;;;35.20;11.88;;;6.80;99.90;;;;;;5032254;28;20085;-80
2021/11/15 11:14:02;;;;;;;32.10;12.07;;;6.70;99.90;;;;;;5036145;28;20047;-76
2021/11/15 11:16:50;;;;;;;34.50;10.07;;;6.80;99.90;;;;;;5026304;28;20058;-76
2021/11/15 11:19:33;;;;;;;29.13;10.35;;;6.80;99.90;;;;;;5027772;28;20022;-76
2021/11/15 11:25:09;;;;;;;32.42;10.73;;;6.70;99.90;;;;;;5044824;28;20112;-79
2021/11/15 11:27:37;;;;;;;36.17;10.68;;;6.70;99.90;;;;;;5035188;28;20406;-78
2021/11/15 11:30:07;;;;;;;34.55;12.02;;;6.80;99.90;;;;;;5040842;28;20050;-78
2021/11/15 11:32:33;;;;;;;34.00;11.40;;;6.80;99.90;;;;;;5039565;28;20118;-78
2021/11/15 11:35:00;;;;;;;39.92;13.02;;;6.80;99.90;;;;;;5059103;28;20029;-82
2021/11/15 11:37:29;;;;;;;37.97;11.75;;;6.90;99.90;;;;;;5064210;28;20025;-77
2021/11/15 11:39:58;;;;;;;40.28;11.73;;;6.80;99.90;;;;;;5065784;28;20029;-77
2021/11/15 11:42:25;;;;;;;30.77;9.60;;;6.80;99.90;;;;;;5043995;28;20088;-79
2021/11/15 11:44:54;;;;;;;38.33;10.68;;;6.80;99.90;;;;;;5041195;28;20108;-79
2021/11/15 11:47:24;;;;;;;40.03;11.32;;;6.80;99.90;;;;;;5046273;28;20083;-74
2021/11/15 11:49:49;;;;;;;35.17;13.57;;;6.80;99.90;;;;;;5045485;28;20041;-76
2021/11/15 11:52:17;;;;;;;31.65;11.02;;;6.80;99.90;;;;;;5046629;28;20092;-76
2021/11/15 11:54:48;;;;;;;45.92;12.63;;;6.80;99.90;;;;;;5044909;28;20036;-77
2021/11/15 11:57:20;;;;;;;26.65;10.32;;;6.80;99.90;;;;;;5046489;28;20036;-76
2021/11/15 11:59:57;;;;;;;37.38;12.10;;;6.80;99.90;;;;;;5046704;28;20029;-76
2021/11/15 12:02:25;;;;;;;30.83;9.40;;;6.80;99.90;;;;;;5046406;28;20108;-77
2021/11/15 12:05:00;;;;;;;43.72;11.30;;;6.80;99.90;;;;;;5044458;28;20056;-78
2021/11/15 12:07:46;;;;;;;37.65;12.82;;;6.90;99.90;;;;;;5045105;28;20033;-76
2021/11/15 12:10:32;;;;;;;49.65;12.40;;;6.70;99.90;;;;;;5059933;28;20827;-78
2021/11/15 12:13:03;;;;;;;34.47;11.48;;;6.80;99.90;;;;;;5048305;28;20076;-79
2021/11/15 12:15:33;;;;;;;37.40;13.13;;;6.70;99.90;;;;;;5045417;28;20030;-81
2021/11/15 12:18:21;;;;;;;27.58;8.75;;;6.70;99.90;;;;;;5038848;28;20055;-81
2021/11/15 12:21:05;;;;;;;31.23;11.82;;;6.70;99.90;;;;;;5037540;28;20030;-77
2021/11/15 12:23:51;;;;;;;41.17;12.30;;;6.70;99.90;;;;;;5038238;28;20512;-78
2021/11/15 12:26:25;;;;;;;47.30;12.23;;;6.70;99.90;;;;;;5032110;28;20033;-80
2021/11/15 12:28:53;;;;;;;32.72;10.98;;;6.80;99.90;;;;;;5051880;28;20082;-77
2021/11/15 12:31:38;;;;;;;29.48;9.88;;;6.80;99.90;;;;;;5053388;28;20037;-78
2021/11/15 12:34:06;;;;;;;50.75;11.70;;;6.90;99.90;;;;;;5028773;28;20029;-78
2021/11/15 12:36:39;;;;;;;28.10;9.73;;;6.90;99.90;;;;;;5025195;28;20041;-77
2021/11/15 12:39:16;;;;;;;39.38;12.05;;;6.90;99.90;;;;;;5025350;28;20128;-79
2021/11/15 12:41:53;;;;;;;34.85;11.55;;;6.90;99.90;;;;;;5024914;28;20136;-79
2021/11/15 12:44:23;;;;;;;32.75;11.00;;;7.00;99.90;;;;;;5024166;28;20029;-77
2021/11/15 12:46:49;;;;;;;36.85;11.02;;;6.90;99.90;;;;;;5024696;28;20049;-79
2021/11/15 12:49:14;;;;;;;41.60;11.35;;;7.00;99.90;;;;;;5024352;28;20038;-79
2021/11/15 12:51:41;;;;;;;26.05;10.20;;;7.00;99.90;;;;;;5036735;28;20409;-78